sensor_id;sensor_type;location;lat;lon;timestamp;P1;durP1;ratioP1;P2;durP2;ratioP2
22752;SDS011;11543;43.144;24.684;2023-05-10T00:00:42;17.65;;;11.15;;
22752;SDS011;11543;43.144;24.684;2023-05-10T00:03:08;13.45;;;10.70;;
22752;SDS011;11543;43.144;24.684;2023-05-10T00:05:33;13.32;;;10.48;;
22752;SDS011;11543;43.144;24.684;2023-05-10T00:07:59;18.13;;;10.48;;
22752;SDS011;11543;43.144;24.684;2023-05-10T00:10:24;13.57;;;10.57;;
22752;SDS011;11543;43.144;24.684;2023-05-10T00:12:50;14.30;;;10.10;;
22752;SDS011;11543;43.144;24.684;2023-05-10T00:15:15;13.27;;;10.32;;
22752;SDS011;11543;43.144;24.684;2023-05-10T00:17:41;16.60;;;10.43;;
22752;SDS011;11543;43.144;24.684;2023-05-10T00:20:07;15.35;;;9.82;;
22752;SDS011;11543;43.144;24.684;2023-05-10T00:22:33;13.68;;;9.63;;
22752;SDS011;11543;43.144;24.684;2023-05-10T00:24:58;16.48;;;10.32;;
22752;SDS011;11543;43.144;24.684;2023-05-10T00:27:24;12.85;;;10.32;;
22752;SDS011;11543;43.144;24.684;2023-05-10T00:29:50;14.32;;;10.30;;
22752;SDS011;11543;43.144;24.684;2023-05-10T00:32:15;13.32;;;10.25;;
22752;SDS011;11543;43.144;24.684;2023-05-10T00:34:41;14.23;;;9.88;;
22752;SDS011;11543;43.144;24.684;2023-05-10T00:37:07;11.13;;;9.80;;
22752;SDS011;11543;43.144;24.684;2023-05-10T00:39:32;13.82;;;10.00;;
22752;SDS011;11543;43.144;24.684;2023-05-10T00:41:58;14.10;;;10.10;;
22752;SDS011;11543;43.144;24.684;2023-05-10T00:44:24;12.95;;;9.93;;
22752;SDS011;11543;43.144;24.684;2023-05-10T00:46:50;16.13;;;9.93;;
22752;SDS011;11543;43.144;24.684;2023-05-10T00:49:16;15.73;;;10.30;;
22752;SDS011;11543;43.144;24.684;2023-05-10T00:51:41;15.15;;;9.95;;
22752;SDS011;11543;43.144;24.684;2023-05-10T00:54:10;15.10;;;9.30;;
22752;SDS011;11543;43.144;24.684;2023-05-10T00:56:37;19.02;;;10.65;;
22752;SDS011;11543;43.144;24.684;2023-05-10T00:59:03;20.55;;;12.10;;
22752;SDS011;11543;43.144;24.684;2023-05-10T01:01:28;18.10;;;11.40;;
22752;SDS011;11543;43.144;24.684;2023-05-10T01:03:55;19.15;;;12.93;;
22752;SDS011;11543;43.144;24.684;2023-05-10T01:06:20;13.30;;;10.43;;
22752;SDS011;11543;43.144;24.684;2023-05-10T01:08:46;14.80;;;10.20;;
22752;SDS011;11543;43.144;24.684;2023-05-10T01:11:12;14.52;;;10.88;;
22752;SDS011;11543;43.144;24.684;2023-05-10T01:13:38;15.68;;;11.07;;
22752;SDS011;11543;43.144;24.684;2023-05-10T01:16:07;13.85;;;9.60;;
22752;SDS011;11543;43.144;24.684;2023-05-10T01:18:33;14.43;;;9.85;;
22752;SDS011;11543;43.144;24.684;2023-05-10T01:21:12;16.13;;;9.82;;
22752;SDS011;11543;43.144;24.684;2023-05-10T01:26:46;14.02;;;9.45;;
22752;SDS011;11543;43.144;24.684;2023-05-10T01:40:30;15.32;;;10.25;;
22752;SDS011;11543;43.144;24.684;2023-05-10T01:43:01;12.70;;;9.73;;
22752;SDS011;11543;43.144;24.684;2023-05-10T01:48:05;16.25;;;10.35;;
22752;SDS011;11543;43.144;24.684;2023-05-10T01:50:34;12.25;;;10.07;;
22752;SDS011;11543;43.144;24.684;2023-05-10T01:53:01;14.65;;;9.93;;
22752;SDS011;11543;43.144;24.684;2023-05-10T01:55:32;15.98;;;9.38;;
22752;SDS011;11543;43.144;24.684;2023-05-10T01:58:10;14.98;;;9.95;;
22752;SDS011;11543;43.144;24.684;2023-05-10T02:00:43;14.93;;;10.00;;
22752;SDS011;11543;43.144;24.684;2023-05-10T02:03:10;15.73;;;11.18;;
22752;SDS011;11543;43.144;24.684;2023-05-10T02:05:37;12.90;;;9.60;;
22752;SDS011;11543;43.144;24.684;2023-05-10T02:08:05;15.68;;;10.52;;
22752;SDS011;11543;43.144;24.684;2023-05-10T02:10:32;18.80;;;10.40;;
22752;SDS011;11543;43.144;24.684;2023-05-10T02:13:01;16.48;;;10.98;;
22752;SDS011;11543;43.144;24.684;2023-05-10T02:15:28;14.57;;;11.35;;
22752;SDS011;11543;43.144;24.684;2023-05-10T02:17:55;18.00;;;13.88;;
22752;SDS011;11543;43.144;24.684;2023-05-10T02:20:22;19.98;;;14.70;;
22752;SDS011;11543;43.144;24.684;2023-05-10T02:22:50;22.70;;;14.07;;
22752;SDS011;11543;43.144;24.684;2023-05-10T02:25:17;19.98;;;14.38;;
22752;SDS011;11543;43.144;24.684;2023-05-10T02:27:45;19.98;;;14.18;;
22752;SDS011;11543;43.144;24.684;2023-05-10T02:30:12;18.10;;;13.80;;
22752;SDS011;11543;43.144;24.684;2023-05-10T02:32:39;20.70;;;13.55;;
22752;SDS011;11543;43.144;24.684;2023-05-10T02:35:06;19.73;;;13.55;;
22752;SDS011;11543;43.144;24.684;2023-05-10T02:37:33;17.90;;;14.18;;
22752;SDS011;11543;43.144;24.684;2023-05-10T02:40:00;40.53;;;14.52;;
22752;SDS011;11543;43.144;24.684;2023-05-10T02:42:28;21.73;;;13.32;;
22752;SDS011;11543;43.144;24.684;2023-05-10T02:45:02;20.02;;;13.52;;
22752;SDS011;11543;43.144;24.684;2023-05-10T02:47:33;25.70;;;13.63;;
22752;SDS011;11543;43.144;24.684;2023-05-10T02:49:58;18.85;;;13.43;;
22752;SDS011;11543;43.144;24.684;2023-05-10T02:52:25;20.30;;;12.50;;
22752;SDS011;11543;43.144;24.684;2023-05-10T02:54:58;19.13;;;12.20;;
22752;SDS011;11543;43.144;24.684;2023-05-10T02:57:30;16.08;;;11.52;;
22752;SDS011;11543;43.144;24.684;2023-05-10T03:00:00;16.10;;;11.38;;
22752;SDS011;11543;43.144;24.684;2023-05-10T03:02:28;15.98;;;11.77;;
22752;SDS011;11543;43.144;24.684;2023-05-10T03:04:55;15.23;;;10.65;;
22752;SDS011;11543;43.144;24.684;2023-05-10T03:07:21;17.67;;;10.98;;
22752;SDS011;11543;43.144;24.684;2023-05-10T03:09:50;14.50;;;10.68;;
22752;SDS011;11543;43.144;24.684;2023-05-10T03:13:02;21.27;;;10.57;;
22752;SDS011;11543;43.144;24.684;2023-05-10T03:18:07;13.68;;;9.85;;
22752;SDS011;11543;43.144;24.684;2023-05-10T03:20:41;13.85;;;9.70;;
22752;SDS011;11543;43.144;24.684;2023-05-10T03:23:11;16.65;;;10.27;;
22752;SDS011;11543;43.144;24.684;2023-05-10T03:25:37;14.60;;;9.32;;
22752;SDS011;11543;43.144;24.684;2023-05-10T03:28:05;20.25;;;10.18;;
22752;SDS011;11543;43.144;24.684;2023-05-10T03:30:31;15.38;;;9.65;;
22752;SDS011;11543;43.144;24.684;2023-05-10T03:33:03;21.80;;;10.38;;
22752;SDS011;11543;43.144;24.684;2023-05-10T03:35:30;14.88;;;10.30;;
22752;SDS011;11543;43.144;24.684;2023-05-10T03:37:56;16.98;;;10.52;;
22752;SDS011;11543;43.144;24.684;2023-05-10T03:40:21;13.32;;;10.43;;
22752;SDS011;11543;43.144;24.684;2023-05-10T03:42:48;19.38;;;11.63;;
22752;SDS011;11543;43.144;24.684;2023-05-10T03:45:13;16.33;;;11.48;;
22752;SDS011;11543;43.144;24.684;2023-05-10T03:47:39;20.65;;;12.43;;
22752;SDS011;11543;43.144;24.684;2023-05-10T03:50:04;17.48;;;11.98;;
22752;SDS011;11543;43.144;24.684;2023-05-10T03:52:30;21.15;;;11.35;;
22752;SDS011;11543;43.144;24.684;2023-05-10T03:54:56;19.60;;;11.45;;
22752;SDS011;11543;43.144;24.684;2023-05-10T03:57:22;14.18;;;10.77;;
22752;SDS011;11543;43.144;24.684;2023-05-10T03:59:47;14.02;;;10.55;;
22752;SDS011;11543;43.144;24.684;2023-05-10T04:02:13;19.10;;;10.50;;
22752;SDS011;11543;43.144;24.684;2023-05-10T04:04:38;13.43;;;9.15;;
22752;SDS011;11543;43.144;24.684;2023-05-10T04:07:04;14.20;;;9.80;;
22752;SDS011;11543;43.144;24.684;2023-05-10T04:09:30;14.10;;;9.65;;
22752;SDS011;11543;43.144;24.684;2023-05-10T04:11:55;16.67;;;10.00;;
22752;SDS011;11543;43.144;24.684;2023-05-10T04:14:20;15.48;;;9.07;;
22752;SDS011;11543;43.144;24.684;2023-05-10T04:16:46;17.48;;;9.40;;
22752;SDS011;11543;43.144;24.684;2023-05-10T04:19:11;14.13;;;8.90;;
22752;SDS011;11543;43.144;24.684;2023-05-10T04:21:37;18.98;;;8.90;;
22752;SDS011;11543;43.144;24.684;2023-05-10T04:24:02;14.52;;;8.90;;
22752;SDS011;11543;43.144;24.684;2023-05-10T04:26:28;12.82;;;8.70;;
22752;SDS011;11543;43.144;24.684;2023-05-10T04:28:54;13.15;;;9.25;;
22752;SDS011;11543;43.144;24.684;2023-05-10T04:31:19;15.07;;;9.57;;
22752;SDS011;11543;43.144;24.684;2023-05-10T04:33:45;16.48;;;8.95;;
22752;SDS011;11543;43.144;24.684;2023-05-10T04:36:10;15.55;;;9.10;;
22752;SDS011;11543;43.144;24.684;2023-05-10T04:38:36;13.90;;;9.27;;
22752;SDS011;11543;43.144;24.684;2023-05-10T04:41:08;16.83;;;8.43;;
22752;SDS011;11543;43.144;24.684;2023-05-10T04:43:36;14.40;;;8.70;;
22752;SDS011;11543;43.144;24.684;2023-05-10T04:46:02;15.90;;;8.85;;
22752;SDS011;11543;43.144;24.684;2023-05-10T04:48:29;14.75;;;8.48;;
22752;SDS011;11543;43.144;24.684;2023-05-10T04:50:54;15.60;;;8.57;;
22752;SDS011;11543;43.144;24.684;2023-05-10T04:53:20;14.18;;;8.77;;
22752;SDS011;11543;43.144;24.684;2023-05-10T04:55:45;12.57;;;8.30;;
22752;SDS011;11543;43.144;24.684;2023-05-10T04:58:11;15.18;;;8.20;;
22752;SDS011;11543;43.144;24.684;2023-05-10T05:00:37;14.63;;;8.25;;
22752;SDS011;11543;43.144;24.684;2023-05-10T05:03:03;15.60;;;8.18;;
22752;SDS011;11543;43.144;24.684;2023-05-10T05:05:28;15.95;;;8.30;;
22752;SDS011;11543;43.144;24.684;2023-05-10T05:07:54;12.95;;;8.07;;
22752;SDS011;11543;43.144;24.684;2023-05-10T05:10:19;11.93;;;8.07;;
22752;SDS011;11543;43.144;24.684;2023-05-10T05:12:45;15.27;;;8.00;;
22752;SDS011;11543;43.144;24.684;2023-05-10T05:15:10;15.82;;;7.55;;
22752;SDS011;11543;43.144;24.684;2023-05-10T05:17:36;11.80;;;8.32;;
22752;SDS011;11543;43.144;24.684;2023-05-10T05:20:02;12.30;;;7.32;;
22752;SDS011;11543;43.144;24.684;2023-05-10T05:22:28;14.82;;;7.38;;
22752;SDS011;11543;43.144;24.684;2023-05-10T05:24:54;12.23;;;7.70;;
22752;SDS011;11543;43.144;24.684;2023-05-10T05:27:20;11.77;;;7.68;;
22752;SDS011;11543;43.144;24.684;2023-05-10T05:29:50;10.90;;;7.57;;
22752;SDS011;11543;43.144;24.684;2023-05-10T05:32:16;14.40;;;8.00;;
22752;SDS011;11543;43.144;24.684;2023-05-10T05:34:43;12.73;;;7.35;;
22752;SDS011;11543;43.144;24.684;2023-05-10T05:37:12;12.63;;;7.82;;
22752;SDS011;11543;43.144;24.684;2023-05-10T05:42:07;13.82;;;7.03;;
22752;SDS011;11543;43.144;24.684;2023-05-10T05:44:34;17.90;;;9.30;;
22752;SDS011;11543;43.144;24.684;2023-05-10T05:47:01;15.55;;;9.13;;
22752;SDS011;11543;43.144;24.684;2023-05-10T05:49:27;13.93;;;9.48;;
22752;SDS011;11543;43.144;24.684;2023-05-10T05:51:53;10.10;;;8.30;;
22752;SDS011;11543;43.144;24.684;2023-05-10T05:54:18;12.95;;;7.93;;
22752;SDS011;11543;43.144;24.684;2023-05-10T05:56:44;8.98;;;6.95;;
22752;SDS011;11543;43.144;24.684;2023-05-10T05:59:09;10.00;;;6.88;;
22752;SDS011;11543;43.144;24.684;2023-05-10T06:01:36;9.68;;;6.85;;
22752;SDS011;11543;43.144;24.684;2023-05-10T06:04:01;12.23;;;6.72;;
22752;SDS011;11543;43.144;24.684;2023-05-10T06:06:27;12.50;;;6.78;;
22752;SDS011;11543;43.144;24.684;2023-05-10T06:08:52;14.10;;;6.85;;
22752;SDS011;11543;43.144;24.684;2023-05-10T06:11:18;9.98;;;6.60;;
22752;SDS011;11543;43.144;24.684;2023-05-10T06:13:43;8.35;;;6.47;;
22752;SDS011;11543;43.144;24.684;2023-05-10T06:16:09;10.90;;;6.53;;
22752;SDS011;11543;43.144;24.684;2023-05-10T06:18:35;11.23;;;6.30;;
22752;SDS011;11543;43.144;24.684;2023-05-10T06:21:01;8.93;;;6.50;;
22752;SDS011;11543;43.144;24.684;2023-05-10T06:23:26;10.02;;;6.03;;
22752;SDS011;11543;43.144;24.684;2023-05-10T06:25:52;9.88;;;6.13;;
22752;SDS011;11543;43.144;24.684;2023-05-10T06:28:17;9.55;;;6.22;;
22752;SDS011;11543;43.144;24.684;2023-05-10T06:30:43;9.35;;;6.05;;
22752;SDS011;11543;43.144;24.684;2023-05-10T06:33:08;9.18;;;5.80;;
22752;SDS011;11543;43.144;24.684;2023-05-10T06:35:34;9.55;;;6.03;;
22752;SDS011;11543;43.144;24.684;2023-05-10T06:37:59;9.57;;;5.65;;
22752;SDS011;11543;43.144;24.684;2023-05-10T06:40:25;10.38;;;5.20;;
22752;SDS011;11543;43.144;24.684;2023-05-10T06:42:50;8.38;;;5.13;;
22752;SDS011;11543;43.144;24.684;2023-05-10T06:45:16;10.90;;;5.13;;
22752;SDS011;11543;43.144;24.684;2023-05-10T06:47:42;7.65;;;5.47;;
22752;SDS011;11543;43.144;24.684;2023-05-10T06:50:08;8.35;;;5.05;;
22752;SDS011;11543;43.144;24.684;2023-05-10T06:52:35;11.45;;;5.20;;
22752;SDS011;11543;43.144;24.684;2023-05-10T06:55:00;10.15;;;5.20;;
22752;SDS011;11543;43.144;24.684;2023-05-10T06:57:26;8.73;;;5.22;;
22752;SDS011;11543;43.144;24.684;2023-05-10T06:59:52;8.38;;;5.20;;
22752;SDS011;11543;43.144;24.684;2023-05-10T07:02:17;10.10;;;4.80;;
22752;SDS011;11543;43.144;24.684;2023-05-10T07:04:43;7.82;;;4.40;;
22752;SDS011;11543;43.144;24.684;2023-05-10T07:07:09;7.82;;;4.53;;
22752;SDS011;11543;43.144;24.684;2023-05-10T07:09:34;6.90;;;3.80;;
22752;SDS011;11543;43.144;24.684;2023-05-10T07:12:00;6.72;;;4.00;;
22752;SDS011;11543;43.144;24.684;2023-05-10T07:14:26;6.72;;;3.47;;
22752;SDS011;11543;43.144;24.684;2023-05-10T07:16:52;5.03;;;3.70;;
22752;SDS011;11543;43.144;24.684;2023-05-10T07:19:18;5.85;;;3.75;;
22752;SDS011;11543;43.144;24.684;2023-05-10T07:21:44;8.68;;;3.60;;
22752;SDS011;11543;43.144;24.684;2023-05-10T07:24:10;6.25;;;3.70;;
22752;SDS011;11543;43.144;24.684;2023-05-10T07:26:35;4.97;;;3.13;;
22752;SDS011;11543;43.144;24.684;2023-05-10T07:29:01;5.40;;;2.95;;
22752;SDS011;11543;43.144;24.684;2023-05-10T07:31:26;7.93;;;3.35;;
22752;SDS011;11543;43.144;24.684;2023-05-10T07:33:52;12.68;;;3.42;;
22752;SDS011;11543;43.144;24.684;2023-05-10T07:36:17;4.90;;;3.00;;
22752;SDS011;11543;43.144;24.684;2023-05-10T07:38:43;6.03;;;3.08;;
22752;SDS011;11543;43.144;24.684;2023-05-10T07:41:08;5.47;;;3.10;;
22752;SDS011;11543;43.144;24.684;2023-05-10T07:43:33;5.72;;;3.13;;
22752;SDS011;11543;43.144;24.684;2023-05-10T07:45:59;4.65;;;3.28;;
22752;SDS011;11543;43.144;24.684;2023-05-10T07:48:25;7.95;;;3.25;;
22752;SDS011;11543;43.144;24.684;2023-05-10T07:50:51;8.38;;;2.80;;
22752;SDS011;11543;43.144;24.684;2023-05-10T07:53:16;3.63;;;2.67;;
22752;SDS011;11543;43.144;24.684;2023-05-10T07:55:43;4.07;;;2.90;;
22752;SDS011;11543;43.144;24.684;2023-05-10T07:58:09;5.85;;;2.60;;
22752;SDS011;11543;43.144;24.684;2023-05-10T08:00:34;5.88;;;2.90;;
22752;SDS011;11543;43.144;24.684;2023-05-10T08:03:00;4.93;;;3.00;;
22752;SDS011;11543;43.144;24.684;2023-05-10T08:05:25;4.95;;;3.05;;
22752;SDS011;11543;43.144;24.684;2023-05-10T08:07:51;8.82;;;3.30;;
22752;SDS011;11543;43.144;24.684;2023-05-10T08:10:16;5.50;;;3.00;;
22752;SDS011;11543;43.144;24.684;2023-05-10T08:12:42;4.57;;;2.75;;
22752;SDS011;11543;43.144;24.684;2023-05-10T08:15:07;6.55;;;2.88;;
22752;SDS011;11543;43.144;24.684;2023-05-10T08:17:34;4.00;;;2.38;;
22752;SDS011;11543;43.144;24.684;2023-05-10T08:19:59;4.75;;;2.30;;
22752;SDS011;11543;43.144;24.684;2023-05-10T08:22:25;6.50;;;3.22;;
22752;SDS011;11543;43.144;24.684;2023-05-10T08:24:51;6.00;;;2.83;;
22752;SDS011;11543;43.144;24.684;2023-05-10T08:27:16;3.58;;;2.50;;
22752;SDS011;11543;43.144;24.684;2023-05-10T08:29:42;5.93;;;2.35;;
22752;SDS011;11543;43.144;24.684;2023-05-10T08:32:07;4.75;;;2.70;;
22752;SDS011;11543;43.144;24.684;2023-05-10T08:34:32;6.22;;;2.50;;
22752;SDS011;11543;43.144;24.684;2023-05-10T08:36:58;4.78;;;2.25;;
22752;SDS011;11543;43.144;24.684;2023-05-10T08:39:23;6.97;;;2.58;;
22752;SDS011;11543;43.144;24.684;2023-05-10T08:41:49;3.28;;;2.15;;
22752;SDS011;11543;43.144;24.684;2023-05-10T08:44:19;3.60;;;2.30;;
22752;SDS011;11543;43.144;24.684;2023-05-10T08:46:46;5.60;;;2.28;;
22752;SDS011;11543;43.144;24.684;2023-05-10T08:49:18;8.52;;;2.30;;
22752;SDS011;11543;43.144;24.684;2023-05-10T08:51:47;4.55;;;1.92;;
22752;SDS011;11543;43.144;24.684;2023-05-10T08:54:20;3.28;;;2.33;;
22752;SDS011;11543;43.144;24.684;2023-05-10T08:56:46;3.20;;;2.30;;
22752;SDS011;11543;43.144;24.684;2023-05-10T08:59:12;4.90;;;2.20;;
22752;SDS011;11543;43.144;24.684;2023-05-10T09:01:39;6.47;;;2.00;;
22752;SDS011;11543;43.144;24.684;2023-05-10T09:04:08;2.80;;;1.92;;
22752;SDS011;11543;43.144;24.684;2023-05-10T09:06:34;4.40;;;2.00;;
22752;SDS011;11543;43.144;24.684;2023-05-10T09:09:02;5.75;;;2.22;;
22752;SDS011;11543;43.144;24.684;2023-05-10T09:11:28;3.35;;;2.28;;
22752;SDS011;11543;43.144;24.684;2023-05-10T09:13:55;2.60;;;1.92;;
22752;SDS011;11543;43.144;24.684;2023-05-10T09:16:22;4.93;;;2.10;;
22752;SDS011;11543;43.144;24.684;2023-05-10T09:18:48;7.03;;;2.00;;
22752;SDS011;11543;43.144;24.684;2023-05-10T09:21:14;4.43;;;2.08;;
22752;SDS011;11543;43.144;24.684;2023-05-10T09:23:44;4.15;;;1.80;;
22752;SDS011;11543;43.144;24.684;2023-05-10T09:26:10;4.72;;;1.90;;
22752;SDS011;11543;43.144;24.684;2023-05-10T09:29:09;2.92;;;1.90;;
22752;SDS011;11543;43.144;24.684;2023-05-10T09:31:46;5.28;;;2.03;;
22752;SDS011;11543;43.144;24.684;2023-05-10T09:34:17;2.20;;;1.67;;
22752;SDS011;11543;43.144;24.684;2023-05-10T09:39:18;5.38;;;2.08;;
22752;SDS011;11543;43.144;24.684;2023-05-10T09:41:44;9.20;;;2.10;;
22752;SDS011;11543;43.144;24.684;2023-05-10T09:44:10;1.85;;;1.30;;
22752;SDS011;11543;43.144;24.684;2023-05-10T09:46:35;5.82;;;1.60;;
22752;SDS011;11543;43.144;24.684;2023-05-10T09:49:01;2.58;;;1.50;;
22752;SDS011;11543;43.144;24.684;2023-05-10T09:51:27;7.32;;;1.45;;
22752;SDS011;11543;43.144;24.684;2023-05-10T09:54:12;4.90;;;1.30;;
22752;SDS011;11543;43.144;24.684;2023-05-10T09:56:39;5.28;;;1.52;;
22752;SDS011;11543;43.144;24.684;2023-05-10T09:59:06;4.80;;;1.23;;
22752;SDS011;11543;43.144;24.684;2023-05-10T10:01:33;3.50;;;1.63;;
22752;SDS011;11543;43.144;24.684;2023-05-10T10:04:02;5.45;;;1.30;;
22752;SDS011;11543;43.144;24.684;2023-05-10T10:06:29;4.40;;;1.35;;
22752;SDS011;11543;43.144;24.684;2023-05-10T10:08:55;3.67;;;1.33;;
22752;SDS011;11543;43.144;24.684;2023-05-10T10:11:21;2.92;;;1.50;;
22752;SDS011;11543;43.144;24.684;2023-05-10T10:13:48;2.55;;;1.40;;
22752;SDS011;11543;43.144;24.684;2023-05-10T10:16:14;3.35;;;1.30;;
22752;SDS011;11543;43.144;24.684;2023-05-10T10:18:40;4.03;;;1.80;;
22752;SDS011;11543;43.144;24.684;2023-05-10T10:21:07;2.45;;;1.58;;
22752;SDS011;11543;43.144;24.684;2023-05-10T10:23:36;3.53;;;1.50;;
22752;SDS011;11543;43.144;24.684;2023-05-10T10:26:02;4.40;;;1.80;;
22752;SDS011;11543;43.144;24.684;2023-05-10T10:31:21;2.47;;;1.95;;
22752;SDS011;11543;43.144;24.684;2023-05-10T10:33:59;9.52;;;4.50;;
22752;SDS011;11543;43.144;24.684;2023-05-10T10:36:28;10.43;;;4.63;;
22752;SDS011;11543;43.144;24.684;2023-05-10T10:38:58;8.88;;;3.15;;
22752;SDS011;11543;43.144;24.684;2023-05-10T10:41:32;5.88;;;2.60;;
22752;SDS011;11543;43.144;24.684;2023-05-10T10:47:06;2.97;;;1.70;;
22752;SDS011;11543;43.144;24.684;2023-05-10T10:54:57;2.83;;;1.80;;
22752;SDS011;11543;43.144;24.684;2023-05-10T10:57:43;4.95;;;1.90;;
22752;SDS011;11543;43.144;24.684;2023-05-10T11:03:16;6.30;;;1.80;;
22752;SDS011;11543;43.144;24.684;2023-05-10T11:05:44;5.25;;;1.80;;
22752;SDS011;11543;43.144;24.684;2023-05-10T11:10:37;4.50;;;2.28;;
22752;SDS011;11543;43.144;24.684;2023-05-10T11:13:04;3.88;;;1.77;;
22752;SDS011;11543;43.144;24.684;2023-05-10T11:15:32;5.10;;;1.95;;
22752;SDS011;11543;43.144;24.684;2023-05-10T11:17:59;4.88;;;2.20;;
22752;SDS011;11543;43.144;24.684;2023-05-10T11:20:41;4.82;;;1.92;;
22752;SDS011;11543;43.144;24.684;2023-05-10T11:23:11;2.63;;;1.80;;
22752;SDS011;11543;43.144;24.684;2023-05-10T11:25:41;3.53;;;2.00;;
22752;SDS011;11543;43.144;24.684;2023-05-10T11:28:08;3.60;;;1.80;;
22752;SDS011;11543;43.144;24.684;2023-05-10T11:30:33;3.38;;;1.63;;
22752;SDS011;11543;43.144;24.684;2023-05-10T11:32:59;7.32;;;1.80;;
22752;SDS011;11543;43.144;24.684;2023-05-10T11:35:27;4.85;;;1.90;;
22752;SDS011;11543;43.144;24.684;2023-05-10T11:37:52;2.55;;;1.90;;
22752;SDS011;11543;43.144;24.684;2023-05-10T11:40:18;6.40;;;2.13;;
22752;SDS011;11543;43.144;24.684;2023-05-10T11:42:44;5.55;;;2.20;;
22752;SDS011;11543;43.144;24.684;2023-05-10T11:45:10;2.97;;;1.60;;
22752;SDS011;11543;43.144;24.684;2023-05-10T11:47:36;4.10;;;2.10;;
22752;SDS011;11543;43.144;24.684;2023-05-10T11:50:02;2.28;;;1.73;;
22752;SDS011;11543;43.144;24.684;2023-05-10T11:52:28;3.50;;;1.70;;
22752;SDS011;11543;43.144;24.684;2023-05-10T11:54:54;4.28;;;1.73;;
22752;SDS011;11543;43.144;24.684;2023-05-10T11:57:20;5.28;;;1.75;;
22752;SDS011;11543;43.144;24.684;2023-05-10T11:59:53;5.50;;;1.65;;
22752;SDS011;11543;43.144;24.684;2023-05-10T12:02:20;2.70;;;1.60;;
22752;SDS011;11543;43.144;24.684;2023-05-10T12:04:45;5.63;;;1.90;;
22752;SDS011;11543;43.144;24.684;2023-05-10T12:07:12;3.00;;;1.77;;
22752;SDS011;11543;43.144;24.684;2023-05-10T12:09:41;4.68;;;1.90;;
22752;SDS011;11543;43.144;24.684;2023-05-10T12:12:08;4.70;;;1.90;;
22752;SDS011;11543;43.144;24.684;2023-05-10T12:14:34;6.60;;;1.70;;
22752;SDS011;11543;43.144;24.684;2023-05-10T12:17:00;3.20;;;1.90;;
22752;SDS011;11543;43.144;24.684;2023-05-10T12:19:26;3.13;;;2.00;;
22752;SDS011;11543;43.144;24.684;2023-05-10T12:21:51;5.18;;;2.30;;
22752;SDS011;11543;43.144;24.684;2023-05-10T12:24:17;5.18;;;1.83;;
22752;SDS011;11543;43.144;24.684;2023-05-10T12:26:43;5.30;;;1.77;;
22752;SDS011;11543;43.144;24.684;2023-05-10T12:29:18;5.65;;;2.60;;
22752;SDS011;11543;43.144;24.684;2023-05-10T12:31:57;5.93;;;2.97;;
22752;SDS011;11543;43.144;24.684;2023-05-10T12:36:57;8.15;;;4.20;;
22752;SDS011;11543;43.144;24.684;2023-05-10T12:39:23;5.95;;;3.63;;
22752;SDS011;11543;43.144;24.684;2023-05-10T12:41:48;6.50;;;3.03;;
22752;SDS011;11543;43.144;24.684;2023-05-10T12:44:14;5.47;;;2.90;;
22752;SDS011;11543;43.144;24.684;2023-05-10T12:46:40;4.82;;;2.30;;
22752;SDS011;11543;43.144;24.684;2023-05-10T12:49:05;2.60;;;2.00;;
22752;SDS011;11543;43.144;24.684;2023-05-10T12:51:31;3.55;;;2.10;;
22752;SDS011;11543;43.144;24.684;2023-05-10T12:53:58;5.50;;;2.05;;
22752;SDS011;11543;43.144;24.684;2023-05-10T12:56:24;4.25;;;1.88;;
22752;SDS011;11543;43.144;24.684;2023-05-10T12:58:50;5.65;;;2.33;;
22752;SDS011;11543;43.144;24.684;2023-05-10T13:01:16;6.10;;;2.10;;
22752;SDS011;11543;43.144;24.684;2023-05-10T13:03:41;3.65;;;1.77;;
22752;SDS011;11543;43.144;24.684;2023-05-10T13:06:08;3.78;;;1.80;;
22752;SDS011;11543;43.144;24.684;2023-05-10T13:08:33;3.85;;;2.00;;
22752;SDS011;11543;43.144;24.684;2023-05-10T13:10:59;4.72;;;2.20;;
22752;SDS011;11543;43.144;24.684;2023-05-10T13:13:26;3.28;;;2.13;;
22752;SDS011;11543;43.144;24.684;2023-05-10T13:15:51;6.65;;;2.03;;
22752;SDS011;11543;43.144;24.684;2023-05-10T13:18:17;4.13;;;2.17;;
22752;SDS011;11543;43.144;24.684;2023-05-10T13:20:42;5.90;;;1.80;;
22752;SDS011;11543;43.144;24.684;2023-05-10T13:23:09;5.35;;;1.83;;
22752;SDS011;11543;43.144;24.684;2023-05-10T13:25:35;3.30;;;1.88;;
22752;SDS011;11543;43.144;24.684;2023-05-10T13:28:00;5.03;;;2.03;;
22752;SDS011;11543;43.144;24.684;2023-05-10T13:30:26;5.30;;;2.63;;
22752;SDS011;11543;43.144;24.684;2023-05-10T13:32:52;4.35;;;2.30;;
22752;SDS011;11543;43.144;24.684;2023-05-10T13:35:17;4.72;;;2.83;;
22752;SDS011;11543;43.144;24.684;2023-05-10T13:37:43;4.57;;;2.50;;
22752;SDS011;11543;43.144;24.684;2023-05-10T13:40:08;3.75;;;2.10;;
22752;SDS011;11543;43.144;24.684;2023-05-10T13:42:34;5.13;;;2.40;;
22752;SDS011;11543;43.144;24.684;2023-05-10T13:45:00;6.05;;;2.35;;
22752;SDS011;11543;43.144;24.684;2023-05-10T13:47:26;4.22;;;2.17;;
22752;SDS011;11543;43.144;24.684;2023-05-10T13:49:52;5.97;;;2.20;;
22752;SDS011;11543;43.144;24.684;2023-05-10T13:52:18;5.03;;;2.25;;
22752;SDS011;11543;43.144;24.684;2023-05-10T13:54:44;5.82;;;2.20;;
22752;SDS011;11543;43.144;24.684;2023-05-10T13:57:10;5.43;;;1.83;;
22752;SDS011;11543;43.144;24.684;2023-05-10T13:59:37;4.75;;;2.08;;
22752;SDS011;11543;43.144;24.684;2023-05-10T14:02:03;5.15;;;2.20;;
22752;SDS011;11543;43.144;24.684;2023-05-10T14:04:30;6.57;;;2.40;;
22752;SDS011;11543;43.144;24.684;2023-05-10T14:06:56;3.15;;;2.33;;
22752;SDS011;11543;43.144;24.684;2023-05-10T14:09:22;7.70;;;2.50;;
22752;SDS011;11543;43.144;24.684;2023-05-10T14:11:49;4.93;;;2.42;;
22752;SDS011;11543;43.144;24.684;2023-05-10T14:14:14;6.47;;;2.20;;
22752;SDS011;11543;43.144;24.684;2023-05-10T14:16:41;2.45;;;1.88;;
22752;SDS011;11543;43.144;24.684;2023-05-10T14:19:08;7.65;;;2.53;;
22752;SDS011;11543;43.144;24.684;2023-05-10T14:21:33;4.25;;;2.53;;
22752;SDS011;11543;43.144;24.684;2023-05-10T14:23:59;5.63;;;2.17;;
22752;SDS011;11543;43.144;24.684;2023-05-10T14:26:24;7.35;;;2.42;;
22752;SDS011;11543;43.144;24.684;2023-05-10T14:28:51;3.05;;;2.00;;
22752;SDS011;11543;43.144;24.684;2023-05-10T14:31:16;6.72;;;2.20;;
22752;SDS011;11543;43.144;24.684;2023-05-10T14:33:44;4.22;;;3.10;;
22752;SDS011;11543;43.144;24.684;2023-05-10T14:36:10;6.57;;;3.58;;
22752;SDS011;11543;43.144;24.684;2023-05-10T14:38:35;7.45;;;3.65;;
22752;SDS011;11543;43.144;24.684;2023-05-10T14:41:01;5.85;;;3.67;;
22752;SDS011;11543;43.144;24.684;2023-05-10T14:43:26;7.80;;;5.30;;
22752;SDS011;11543;43.144;24.684;2023-05-10T14:45:53;7.80;;;4.22;;
22752;SDS011;11543;43.144;24.684;2023-05-10T14:48:18;8.60;;;3.92;;
22752;SDS011;11543;43.144;24.684;2023-05-10T14:50:44;5.68;;;3.75;;
22752;SDS011;11543;43.144;24.684;2023-05-10T14:53:11;7.53;;;4.80;;
22752;SDS011;11543;43.144;24.684;2023-05-10T14:55:36;7.82;;;5.10;;
22752;SDS011;11543;43.144;24.684;2023-05-10T14:58:03;8.13;;;3.85;;
22752;SDS011;11543;43.144;24.684;2023-05-10T15:00:28;6.25;;;4.53;;
22752;SDS011;11543;43.144;24.684;2023-05-10T15:02:54;8.20;;;4.30;;
22752;SDS011;11543;43.144;24.684;2023-05-10T15:05:20;7.05;;;4.60;;
22752;SDS011;11543;43.144;24.684;2023-05-10T15:07:45;9.63;;;4.97;;